sensor_id;sensor_type;location;lat;lon;timestamp;pressure;altitude;pressure_sealevel;temperature;humidity
54806;BME280;62866;55.776;37.496;2024-03-25T00:01:13;98102.59;;;4.38;88.38
54806;BME280;62866;55.776;37.496;2024-03-25T00:03:39;98110.34;;;4.40;88.96
54806;BME280;62866;55.776;37.496;2024-03-25T00:06:04;98112.34;;;4.38;88.55
54806;BME280;62866;55.776;37.496;2024-03-25T00:08:30;98121.47;;;4.35;87.64
54806;BME280;62866;55.776;37.496;2024-03-25T00:10:56;98114.50;;;4.28;87.94
54806;BME280;62866;55.776;37.496;2024-03-25T00:13:21;98120.66;;;4.13;87.47
54806;BME280;62866;55.776;37.496;2024-03-25T00:15:47;98117.13;;;4.06;87.26
54806;BME280;62866;55.776;37.496;2024-03-25T00:18:12;98124.72;;;4.09;86.70
54806;BME280;62866;55.776;37.496;2024-03-25T00:20:38;98106.88;;;3.97;86.29
54806;BME280;62866;55.776;37.496;2024-03-25T00:23:04;98146.59;;;4.03;85.54
54806;BME280;62866;55.776;37.496;2024-03-25T00:25:29;98140.88;;;4.00;85.79
54806;BME280;62866;55.776;37.496;2024-03-25T00:27:55;98125.84;;;4.00;85.68
54806;BME280;62866;55.776;37.496;2024-03-25T00:30:22;98126.56;;;3.94;84.47
54806;BME280;62866;55.776;37.496;2024-03-25T00:32:47;98136.31;;;3.94;84.63
54806;BME280;62866;55.776;37.496;2024-03-25T00:35:13;98149.00;;;3.98;84.11
54806;BME280;62866;55.776;37.496;2024-03-25T00:37:38;98146.81;;;3.87;84.67
54806;BME280;62866;55.776;37.496;2024-03-25T00:40:04;98156.47;;;3.95;84.83
54806;BME280;62866;55.776;37.496;2024-03-25T00:42:32;98143.53;;;3.85;85.34
54806;BME280;62866;55.776;37.496;2024-03-25T00:44:58;98156.97;;;3.84;84.91
54806;BME280;62866;55.776;37.496;2024-03-25T00:47:24;98160.78;;;3.81;85.12
54806;BME280;62866;55.776;37.496;2024-03-25T00:49:49;98154.31;;;3.69;85.47
54806;BME280;62866;55.776;37.496;2024-03-25T00:52:15;98170.47;;;3.74;86.12
54806;BME280;62866;55.776;37.496;2024-03-25T00:54:40;98166.25;;;3.79;86.17
54806;BME280;62866;55.776;37.496;2024-03-25T00:57:05;98162.34;;;3.75;85.87
54806;BME280;62866;55.776;37.496;2024-03-25T00:59:31;98176.00;;;3.79;86.46
54806;BME280;62866;55.776;37.496;2024-03-25T01:01:57;98174.38;;;3.78;86.65
54806;BME280;62866;55.776;37.496;2024-03-25T01:04:22;98174.94;;;3.73;86.11
54806;BME280;62866;55.776;37.496;2024-03-25T01:06:48;98190.50;;;3.68;86.17
54806;BME280;62866;55.776;37.496;2024-03-25T01:09:13;98175.88;;;3.51;86.41
54806;BME280;62866;55.776;37.496;2024-03-25T01:11:39;98203.47;;;3.63;86.00
54806;BME280;62866;55.776;37.496;2024-03-25T01:14:05;98208.50;;;3.58;86.60
54806;BME280;62866;55.776;37.496;2024-03-25T01:16:30;98214.59;;;3.59;86.13
54806;BME280;62866;55.776;37.496;2024-03-25T01:18:57;98218.06;;;3.59;86.13
54806;BME280;62866;55.776;37.496;2024-03-25T01:21:23;98227.16;;;3.57;86.50
54806;BME280;62866;55.776;37.496;2024-03-25T01:23:49;98219.75;;;3.52;86.78
54806;BME280;62866;55.776;37.496;2024-03-25T01:26:15;98216.31;;;3.52;87.22
54806;BME280;62866;55.776;37.496;2024-03-25T01:28:40;98225.34;;;3.57;86.85
54806;BME280;62866;55.776;37.496;2024-03-25T01:31:06;98215.31;;;3.53;86.78
54806;BME280;62866;55.776;37.496;2024-03-25T01:33:31;98208.59;;;3.50;86.55
54806;BME280;62866;55.776;37.496;2024-03-25T01:35:57;98221.66;;;3.43;86.85
54806;BME280;62866;55.776;37.496;2024-03-25T01:38:22;98225.34;;;3.42;86.34
54806;BME280;62866;55.776;37.496;2024-03-25T01:40:48;98236.53;;;3.44;86.30
54806;BME280;62866;55.776;37.496;2024-03-25T01:43:14;98242.28;;;3.48;86.50
54806;BME280;62866;55.776;37.496;2024-03-25T01:45:39;98244.47;;;3.44;86.22
54806;BME280;62866;55.776;37.496;2024-03-25T01:48:07;98238.25;;;3.37;86.86
54806;BME280;62866;55.776;37.496;2024-03-25T01:50:35;98237.09;;;3.40;87.30
54806;BME280;62866;55.776;37.496;2024-03-25T01:53:02;98233.06;;;3.29;87.07
54806;BME280;62866;55.776;37.496;2024-03-25T01:55:29;98251.44;;;3.23;87.23
54806;BME280;62866;55.776;37.496;2024-03-25T01:57:56;98249.97;;;3.20;87.72
54806;BME280;62866;55.776;37.496;2024-03-25T02:00:22;98256.97;;;3.13;87.62
54806;BME280;62866;55.776;37.496;2024-03-25T02:02:50;98249.97;;;3.20;87.96
54806;BME280;62866;55.776;37.496;2024-03-25T02:05:17;98253.44;;;3.21;88.00
54806;BME280;62866;55.776;37.496;2024-03-25T02:07:44;98259.19;;;3.24;87.58
54806;BME280;62866;55.776;37.496;2024-03-25T02:10:10;98264.94;;;3.28;87.63
54806;BME280;62866;55.776;37.496;2024-03-25T02:12:37;98271.22;;;3.27;87.17
54806;BME280;62866;55.776;37.496;2024-03-25T02:15:04;98250.53;;;3.16;87.14
54806;BME280;62866;55.776;37.496;2024-03-25T02:17:30;98271.59;;;3.24;86.83
54806;BME280;62866;55.776;37.496;2024-03-25T02:19:56;98279.94;;;3.27;87.09
54806;BME280;62866;55.776;37.496;2024-03-25T02:22:21;98282.25;;;3.30;87.10
54806;BME280;62866;55.776;37.496;2024-03-25T02:24:49;98280.59;;;3.29;86.81
54806;BME280;62866;55.776;37.496;2024-03-25T02:27:16;98272.41;;;3.24;86.75
54806;BME280;62866;55.776;37.496;2024-03-25T02:29:42;98267.13;;;3.24;86.63
54806;BME280;62866;55.776;37.496;2024-03-25T02:32:08;98272.84;;;3.28;86.67
54806;BME280;62866;55.776;37.496;2024-03-25T02:34:43;98289.91;;;3.25;86.38
54806;BME280;62866;55.776;37.496;2024-03-25T02:37:10;98304.53;;;3.28;86.21
54806;BME280;62866;55.776;37.496;2024-03-25T02:39:36;98310.41;;;3.38;86.30
54806;BME280;62866;55.776;37.496;2024-03-25T02:42:02;98305.47;;;3.35;86.08
54806;BME280;62866;55.776;37.496;2024-03-25T02:44:28;98309.13;;;3.34;85.75
54806;BME280;62866;55.776;37.496;2024-03-25T02:46:53;98249.91;;;2.91;85.95
54806;BME280;62866;55.776;37.496;2024-03-25T02:49:19;98308.56;;;3.24;85.95
54806;BME280;62866;55.776;37.496;2024-03-25T02:51:45;98321.22;;;3.28;86.00
54806;BME280;62866;55.776;37.496;2024-03-25T02:54:11;98318.47;;;3.22;85.98
54806;BME280;62866;55.776;37.496;2024-03-25T02:56:37;98332.16;;;3.25;86.22
54806;BME280;62866;55.776;37.496;2024-03-25T02:59:02;98338.59;;;3.23;86.01
54806;BME280;62866;55.776;37.496;2024-03-25T03:01:28;98341.72;;;3.26;85.92
54806;BME280;62866;55.776;37.496;2024-03-25T03:03:53;98349.66;;;3.26;85.84
54806;BME280;62866;55.776;37.496;2024-03-25T03:06:19;98347.34;;;3.23;85.94
54806;BME280;62866;55.776;37.496;2024-03-25T03:08:45;98353.47;;;3.24;85.77
54806;BME280;62866;55.776;37.496;2024-03-25T03:11:10;98354.34;;;3.16;86.21
54806;BME280;62866;55.776;37.496;2024-03-25T03:13:36;98361.28;;;3.17;86.23
54806;BME280;62866;55.776;37.496;2024-03-25T03:16:01;98353.34;;;3.17;85.91
54806;BME280;62866;55.776;37.496;2024-03-25T03:18:27;98366.56;;;3.17;85.66
54806;BME280;62866;55.776;37.496;2024-03-25T03:20:53;98351.81;;;3.23;85.98
54806;BME280;62866;55.776;37.496;2024-03-25T03:23:22;98362.53;;;3.21;85.81
54806;BME280;62866;55.776;37.496;2024-03-25T03:25:47;98370.81;;;3.18;86.00
54806;BME280;62866;55.776;37.496;2024-03-25T03:28:13;98381.03;;;3.21;86.13
54806;BME280;62866;55.776;37.496;2024-03-25T03:30:40;98376.56;;;3.22;86.33
54806;BME280;62866;55.776;37.496;2024-03-25T03:33:06;98363.09;;;3.17;85.66
54806;BME280;62866;55.776;37.496;2024-03-25T03:35:35;98379.97;;;3.30;85.99
54806;BME280;62866;55.776;37.496;2024-03-25T03:38:00;98386.75;;;3.33;86.00
54806;BME280;62866;55.776;37.496;2024-03-25T03:40:26;98388.38;;;3.34;85.52
54806;BME280;62866;55.776;37.496;2024-03-25T03:42:51;98391.84;;;3.34;84.85
54806;BME280;62866;55.776;37.496;2024-03-25T03:45:17;98404.41;;;3.32;85.04
54806;BME280;62866;55.776;37.496;2024-03-25T03:47:42;98399.88;;;3.41;85.13
54806;BME280;62866;55.776;37.496;2024-03-25T03:50:09;98403.97;;;3.43;85.11
54806;BME280;62866;55.776;37.496;2024-03-25T03:52:34;98414.47;;;3.52;84.81
54806;BME280;62866;55.776;37.496;2024-03-25T03:55:00;98409.75;;;3.47;84.06
54806;BME280;62866;55.776;37.496;2024-03-25T03:57:25;98384.91;;;3.33;84.07
54806;BME280;62866;55.776;37.496;2024-03-25T03:59:51;98413.03;;;3.49;84.69
54806;BME280;62866;55.776;37.496;2024-03-25T04:02:17;98424.06;;;3.53;84.11
54806;BME280;62866;55.776;37.496;2024-03-25T04:04:43;98423.44;;;3.51;84.03
54806;BME280;62866;55.776;37.496;2024-03-25T04:07:08;98435.00;;;3.50;84.51
54806;BME280;62866;55.776;37.496;2024-03-25T04:09:34;98430.97;;;3.54;84.45
54806;BME280;62866;55.776;37.496;2024-03-25T04:11:59;98446.38;;;3.50;84.30
54806;BME280;62866;55.776;37.496;2024-03-25T04:14:26;98449.66;;;3.52;84.16
54806;BME280;62866;55.776;37.496;2024-03-25T04:16:52;98438.63;;;3.49;83.59
54806;BME280;62866;55.776;37.496;2024-03-25T04:19:19;98447.16;;;3.59;83.23
54806;BME280;62866;55.776;37.496;2024-03-25T04:21:44;98450.72;;;3.66;82.96
54806;BME280;62866;55.776;37.496;2024-03-25T04:24:10;98462.47;;;3.63;83.12
54806;BME280;62866;55.776;37.496;2024-03-25T04:26:35;98461.63;;;3.63;82.83
54806;BME280;62866;55.776;37.496;2024-03-25T04:29:01;98451.88;;;3.63;83.54
54806;BME280;62866;55.776;37.496;2024-03-25T04:31:26;98462.13;;;3.66;83.30
54806;BME280;62866;55.776;37.496;2024-03-25T04:33:52;98459.88;;;3.55;83.47
54806;BME280;62866;55.776;37.496;2024-03-25T04:36:17;98477.50;;;3.63;82.94
54806;BME280;62866;55.776;37.496;2024-03-25T04:38:43;98478.81;;;3.67;83.35
54806;BME280;62866;55.776;37.496;2024-03-25T04:41:08;98478.31;;;3.63;83.28
54806;BME280;62866;55.776;37.496;2024-03-25T04:43:33;98484.16;;;3.59;83.59
54806;BME280;62866;55.776;37.496;2024-03-25T04:46:02;98493.84;;;3.66;83.91
54806;BME280;62866;55.776;37.496;2024-03-25T04:48:28;98497.03;;;3.54;83.77
54806;BME280;62866;55.776;37.496;2024-03-25T04:50:55;98491.25;;;3.58;83.54
54806;BME280;62866;55.776;37.496;2024-03-25T04:53:20;98502.69;;;3.73;83.46
54806;BME280;62866;55.776;37.496;2024-03-25T04:55:46;98509.75;;;3.81;83.32
54806;BME280;62866;55.776;37.496;2024-03-25T04:58:11;98513.31;;;3.88;82.27
54806;BME280;62866;55.776;37.496;2024-03-25T05:00:37;98516.38;;;4.00;82.33
54806;BME280;62866;55.776;37.496;2024-03-25T05:03:02;98518.41;;;4.12;81.69
54806;BME280;62866;55.776;37.496;2024-03-25T05:05:29;98522.25;;;4.10;81.97
54806;BME280;62866;55.776;37.496;2024-03-25T05:07:54;98531.13;;;4.17;82.10
54806;BME280;62866;55.776;37.496;2024-03-25T05:10:20;98539.72;;;4.34;81.65
54806;BME280;62866;55.776;37.496;2024-03-25T05:12:45;98538.50;;;4.59;81.13
54806;BME280;62866;55.776;37.496;2024-03-25T05:15:13;98537.59;;;4.81;81.14
54806;BME280;62866;55.776;37.496;2024-03-25T05:17:38;98533.91;;;5.12;79.82
54806;BME280;62866;55.776;37.496;2024-03-25T05:20:04;98547.50;;;5.38;79.25
54806;BME280;62866;55.776;37.496;2024-03-25T05:22:30;98542.72;;;5.48;79.44
54806;BME280;62866;55.776;37.496;2024-03-25T05:24:56;98552.94;;;5.66;78.91
54806;BME280;62866;55.776;37.496;2024-03-25T05:27:21;98552.22;;;5.57;79.43
54806;BME280;62866;55.776;37.496;2024-03-25T05:29:48;98552.97;;;5.51;79.35
54806;BME280;62866;55.776;37.496;2024-03-25T05:32:14;98568.00;;;5.65;79.13
54806;BME280;62866;55.776;37.496;2024-03-25T05:34:41;98554.63;;;5.88;79.07
54806;BME280;62866;55.776;37.496;2024-03-25T05:37:07;98571.00;;;5.77;78.75
54806;BME280;62866;55.776;37.496;2024-03-25T05:39:33;98562.41;;;5.39;78.64
54806;BME280;62866;55.776;37.496;2024-03-25T05:41:58;98584.41;;;5.54;79.75
54806;BME280;62866;55.776;37.496;2024-03-25T05:44:23;98579.06;;;7.44;76.71
54806;BME280;62866;55.776;37.496;2024-03-25T05:46:49;98579.03;;;10.13;73.23
54806;BME280;62866;55.776;37.496;2024-03-25T05:49:14;98575.09;;;11.21;67.98
54806;BME280;62866;55.776;37.496;2024-03-25T05:51:40;98565.94;;;11.11;68.58
54806;BME280;62866;55.776;37.496;2024-03-25T05:54:05;98578.78;;;11.57;68.04
54806;BME280;62866;55.776;37.496;2024-03-25T05:56:31;98597.88;;;11.06;69.27
54806;BME280;62866;55.776;37.496;2024-03-25T05:58:57;98592.88;;;10.66;70.79
54806;BME280;62866;55.776;37.496;2024-03-25T06:01:23;98582.25;;;10.59;69.72
54806;BME280;62866;55.776;37.496;2024-03-25T06:03:48;98602.97;;;10.01;67.35
54806;BME280;62866;55.776;37.496;2024-03-25T06:06:14;98606.28;;;9.39;68.36
54806;BME280;62866;55.776;37.496;2024-03-25T06:08:39;98612.72;;;8.72;68.03
54806;BME280;62866;55.776;37.496;2024-03-25T06:11:05;98609.66;;;9.01;65.35
54806;BME280;62866;55.776;37.496;2024-03-25T06:13:30;98617.41;;;9.87;64.59
54806;BME280;62866;55.776;37.496;2024-03-25T06:15:56;98611.09;;;10.76;60.54
54806;BME280;62866;55.776;37.496;2024-03-25T06:18:21;98613.94;;;10.81;61.86
54806;BME280;62866;55.776;37.496;2024-03-25T06:20:47;98617.50;;;11.79;59.44
54806;BME280;62866;55.776;37.496;2024-03-25T06:23:26;98625.19;;;13.00;57.80
54806;BME280;62866;55.776;37.496;2024-03-25T06:25:53;98616.69;;;12.91;57.51
54806;BME280;62866;55.776;37.496;2024-03-25T06:28:19;98644.44;;;12.85;58.08
54806;BME280;62866;55.776;37.496;2024-03-25T06:30:46;98650.56;;;13.16;58.31
54806;BME280;62866;55.776;37.496;2024-03-25T06:33:30;98640.03;;;13.49;54.72
54806;BME280;62866;55.776;37.496;2024-03-25T06:36:14;98630.34;;;12.37;55.79
54806;BME280;62866;55.776;37.496;2024-03-25T06:38:40;98660.16;;;12.10;57.21
54806;BME280;62866;55.776;37.496;2024-03-25T06:41:05;98646.63;;;11.69;56.95
54806;BME280;62866;55.776;37.496;2024-03-25T06:43:31;98653.13;;;11.80;56.47
54806;BME280;62866;55.776;37.496;2024-03-25T06:45:56;98667.38;;;11.73;57.15
54806;BME280;62866;55.776;37.496;2024-03-25T06:48:22;98653.09;;;11.43;57.03
54806;BME280;62866;55.776;37.496;2024-03-25T06:50:57;98670.97;;;10.99;56.71
54806;BME280;62866;55.776;37.496;2024-03-25T06:53:30;98667.06;;;10.39;57.43
54806;BME280;62866;55.776;37.496;2024-03-25T06:55:57;98679.19;;;9.90;58.60
54806;BME280;62866;55.776;37.496;2024-03-25T06:58:24;98680.38;;;9.30;60.60
54806;BME280;62866;55.776;37.496;2024-03-25T07:00:49;98678.13;;;8.88;60.25
54806;BME280;62866;55.776;37.496;2024-03-25T07:03:21;98697.63;;;8.88;60.91
54806;BME280;62866;55.776;37.496;2024-03-25T07:05:48;98681.81;;;8.73;60.95
54806;BME280;62866;55.776;37.496;2024-03-25T07:08:14;98689.63;;;8.88;60.76
54806;BME280;62866;55.776;37.496;2024-03-25T07:10:46;98716.06;;;8.70;60.64
54806;BME280;62866;55.776;37.496;2024-03-25T07:13:12;98691.66;;;8.53;60.53
54806;BME280;62866;55.776;37.496;2024-03-25T07:15:38;98694.69;;;8.50;60.45
54806;BME280;62866;55.776;37.496;2024-03-25T07:18:04;98696.81;;;8.94;59.81
54806;BME280;62866;55.776;37.496;2024-03-25T07:20:30;98710.13;;;9.14;59.10
54806;BME280;62866;55.776;37.496;2024-03-25T07:22:57;98723.47;;;9.34;59.65
54806;BME280;62866;55.776;37.496;2024-03-25T07:25:23;98709.44;;;9.78;58.11
54806;BME280;62866;55.776;37.496;2024-03-25T07:27:52;98699.34;;;9.86;58.70
54806;BME280;62866;55.776;37.496;2024-03-25T07:30:18;98722.09;;;10.53;57.62
54806;BME280;62866;55.776;37.496;2024-03-25T07:32:44;98698.97;;;10.34;56.66
54806;BME280;62866;55.776;37.496;2024-03-25T07:35:13;98732.22;;;10.38;57.89
54806;BME280;62866;55.776;37.496;2024-03-25T07:37:44;98729.22;;;11.47;55.38
54806;BME280;62866;55.776;37.496;2024-03-25T07:40:10;98737.78;;;11.06;57.20
54806;BME280;62866;55.776;37.496;2024-03-25T07:42:37;98733.41;;;11.61;56.84
54806;BME280;62866;55.776;37.496;2024-03-25T07:45:03;98742.72;;;12.50;53.62
54806;BME280;62866;55.776;37.496;2024-03-25T07:47:30;98746.56;;;12.24;54.00
54806;BME280;62866;55.776;37.496;2024-03-25T07:49:58;98755.13;;;12.14;53.88
54806;BME280;62866;55.776;37.496;2024-03-25T07:52:27;98763.22;;;11.90;54.00
54806;BME280;62866;55.776;37.496;2024-03-25T07:54:53;98760.00;;;11.56;54.42
54806;BME280;62866;55.776;37.496;2024-03-25T07:57:21;98761.50;;;11.02;55.63
54806;BME280;62866;55.776;37.496;2024-03-25T07:59:47;98764.84;;;10.91;55.12
54806;BME280;62866;55.776;37.496;2024-03-25T08:02:12;98767.47;;;12.34;53.67
54806;BME280;62866;55.776;37.496;2024-03-25T08:04:38;98761.47;;;14.61;49.02
54806;BME280;62866;55.776;37.496;2024-03-25T08:07:07;98768.25;;;15.71;47.72
54806;BME280;62866;55.776;37.496;2024-03-25T08:09:32;98755.50;;;16.21;47.85
54806;BME280;62866;55.776;37.496;2024-03-25T08:11:58;98752.38;;;15.91;49.72
54806;BME280;62866;55.776;37.496;2024-03-25T08:14:23;98759.81;;;15.84;46.04
54806;BME280;62866;55.776;37.496;2024-03-25T08:16:49;98777.56;;;17.64;44.28
54806;BME280;62866;55.776;37.496;2024-03-25T08:19:18;98746.31;;;17.15;43.77
54806;BME280;62866;55.776;37.496;2024-03-25T08:21:43;98749.59;;;16.03;46.29
54806;BME280;62866;55.776;37.496;2024-03-25T08:24:08;98761.59;;;15.57;46.59
54806;BME280;62866;55.776;37.496;2024-03-25T08:26:37;98767.59;;;14.33;48.18
54806;BME280;62866;55.776;37.496;2024-03-25T08:29:02;98772.44;;;13.73;49.14
54806;BME280;62866;55.776;37.496;2024-03-25T08:31:32;98772.47;;;12.78;49.71
54806;BME280;62866;55.776;37.496;2024-03-25T08:33:57;98789.88;;;12.03;50.72
54806;BME280;62866;55.776;37.496;2024-03-25T08:36:23;98780.81;;;12.04;50.25
54806;BME280;62866;55.776;37.496;2024-03-25T08:38:49;98778.19;;;12.52;49.29
54806;BME280;62866;55.776;37.496;2024-03-25T08:41:14;98762.31;;;12.50;48.83
54806;BME280;62866;55.776;37.496;2024-03-25T08:43:40;98784.81;;;14.44;46.61
54806;BME280;62866;55.776;37.496;2024-03-25T08:46:06;98786.91;;;14.42;47.59
54806;BME280;62866;55.776;37.496;2024-03-25T08:48:31;98787.41;;;14.39;47.08
54806;BME280;62866;55.776;37.496;2024-03-25T08:50:57;98783.78;;;16.41;43.49
54806;BME280;62866;55.776;37.496;2024-03-25T08:53:22;98789.66;;;17.30;42.04
54806;BME280;62866;55.776;37.496;2024-03-25T08:55:54;98785.34;;;16.15;42.45
54806;BME280;62866;55.776;37.496;2024-03-25T08:58:19;98793.75;;;15.80;44.78
54806;BME280;62866;55.776;37.496;2024-03-25T09:00:45;98804.41;;;17.49;42.69
54806;BME280;62866;55.776;37.496;2024-03-25T09:03:10;98800.84;;;16.24;42.78
54806;BME280;62866;55.776;37.496;2024-03-25T09:05:36;98802.13;;;15.67;44.63
54806;BME280;62866;55.776;37.496;2024-03-25T09:08:07;98781.44;;;16.06;42.77
54806;BME280;62866;55.776;37.496;2024-03-25T09:10:35;98774.94;;;15.51;43.65
54806;BME280;62866;55.776;37.496;2024-03-25T09:13:19;98797.31;;;15.85;42.56
54806;BME280;62866;55.776;37.496;2024-03-25T09:15:45;98805.44;;;15.40;43.04
54806;BME280;62866;55.776;37.496;2024-03-25T09:18:10;98807.38;;;15.73;42.81
54806;BME280;62866;55.776;37.496;2024-03-25T09:20:35;98813.44;;;15.35;42.75
54806;BME280;62866;55.776;37.496;2024-03-25T09:23:01;98806.00;;;14.80;43.00
54806;BME280;62866;55.776;37.496;2024-03-25T09:25:27;98829.69;;;14.32;44.17
54806;BME280;62866;55.776;37.496;2024-03-25T09:27:53;98825.03;;;14.04;44.61
54806;BME280;62866;55.776;37.496;2024-03-25T09:30:18;98822.59;;;13.26;45.36
54806;BME280;62866;55.776;37.496;2024-03-25T09:32:45;98827.78;;;12.61;46.19
54806;BME280;62866;55.776;37.496;2024-03-25T09:35:10;98826.44;;;12.52;46.38
54806;BME280;62866;55.776;37.496;2024-03-25T09:37:36;98835.97;;;12.11;47.17
54806;BME280;62866;55.776;37.496;2024-03-25T09:40:03;98840.53;;;11.86;47.71
54806;BME280;62866;55.776;37.496;2024-03-25T09:42:44;98848.41;;;12.24;47.59
54806;BME280;62866;55.776;37.496;2024-03-25T09:45:12;98846.63;;;12.54;46.37
54806;BME280;62866;55.776;37.496;2024-03-25T09:47:39;98832.53;;;12.04;46.44
54806;BME280;62866;55.776;37.496;2024-03-25T09:50:06;98850.34;;;11.92;48.34
54806;BME280;62866;55.776;37.496;2024-03-25T09:52:34;98843.00;;;11.88;47.58
54806;BME280;62866;55.776;37.496;2024-03-25T09:54:59;98857.63;;;11.85;47.29
54806;BME280;62866;55.776;37.496;2024-03-25T09:57:25;98843.09;;;11.74;47.45
54806;BME280;62866;55.776;37.496;2024-03-25T09:59:51;98839.22;;;11.64;47.25
54806;BME280;62866;55.776;37.496;2024-03-25T10:02:17;98854.09;;;11.60;47.59
54806;BME280;62866;55.776;37.496;2024-03-25T10:04:47;98854.75;;;11.55;47.68
54806;BME280;62866;55.776;37.496;2024-03-25T10:07:24;98852.22;;;11.35;47.82
54806;BME280;62866;55.776;37.496;2024-03-25T10:09:51;98831.84;;;11.03;48.41
54806;BME280;62866;55.776;37.496;2024-03-25T10:12:16;98859.00;;;11.00;48.83
54806;BME280;62866;55.776;37.496;2024-03-25T10:14:42;98852.47;;;10.38;49.76
54806;BME280;62866;55.776;37.496;2024-03-25T10:17:08;98858.06;;;10.23;50.77
54806;BME280;62866;55.776;37.496;2024-03-25T10:19:33;98848.13;;;10.50;50.08
54806;BME280;62866;55.776;37.496;2024-03-25T10:22:06;98829.06;;;10.85;49.64
54806;BME280;62866;55.776;37.496;2024-03-25T10:24:45;98859.09;;;11.25;49.07
54806;BME280;62866;55.776;37.496;2024-03-25T10:27:17;98850.13;;;11.13;49.93
54806;BME280;62866;55.776;37.496;2024-03-25T10:29:45;98856.97;;;11.33;49.50
54806;BME280;62866;55.776;37.496;2024-03-25T10:32:13;98860.31;;;11.29;49.22
54806;BME280;62866;55.776;37.496;2024-03-25T10:34:38;98853.88;;;11.36;49.04
54806;BME280;62866;55.776;37.496;2024-03-25T10:37:05;98863.97;;;10.96;49.69
54806;BME280;62866;55.776;37.496;2024-03-25T10:39:39;98832.00;;;10.19;50.49
54806;BME280;62866;55.776;37.496;2024-03-25T10:42:06;98864.03;;;9.99;51.73
54806;BME280;62866;55.776;37.496;2024-03-25T10:44:33;98849.56;;;10.46;51.55
54806;BME280;62866;55.776;37.496;2024-03-25T10:47:01;98866.50;;;10.85;50.75
54806;BME280;62866;55.776;37.496;2024-03-25T10:49:50;98865.25;;;11.25;50.07
54806;BME280;62866;55.776;37.496;2024-03-25T10:52:16;98864.91;;;11.15;49.63
54806;BME280;62866;55.776;37.496;2024-03-25T10:54:45;98837.09;;;10.85;50.08
54806;BME280;62866;55.776;37.496;2024-03-25T10:57:13;98867.94;;;10.81;50.45
54806;BME280;62866;55.776;37.496;2024-03-25T10:59:40;98866.41;;;10.47;51.05
54806;BME280;62866;55.776;37.496;2024-03-25T11:02:08;98873.88;;;10.32;51.03
54806;BME280;62866;55.776;37.496;2024-03-25T11:04:34;98881.44;;;10.41;51.02
54806;BME280;62866;55.776;37.496;2024-03-25T11:07:11;98868.13;;;10.28;50.65
54806;BME280;62866;55.776;37.496;2024-03-25T11:09:37;98878.59;;;10.30;50.62
54806;BME280;62866;55.776;37.496;2024-03-25T11:12:03;98885.00;;;10.02;51.35
54806;BME280;62866;55.776;37.496;2024-03-25T11:14:29;98879.44;;;9.71;51.93
54806;BME280;62866;55.776;37.496;2024-03-25T11:16:57;98875.53;;;9.80;51.74
54806;BME280;62866;55.776;37.496;2024-03-25T11:19:29;98880.03;;;9.33;52.30
54806;BME280;62866;55.776;37.496;2024-03-25T11:22:06;98875.28;;;9.22;52.08
54806;BME280;62866;55.776;37.496;2024-03-25T11:24:32;98878.84;;;8.82;53.09
54806;BME280;62866;55.776;37.496;2024-03-25T11:27:02;98883.28;;;8.61;53.66
54806;BME280;62866;55.776;37.496;2024-03-25T11:29:27;98881.56;;;8.47;53.86
54806;BME280;62866;55.776;37.496;2024-03-25T11:31:53;98879.47;;;8.36;54.28
54806;BME280;62866;55.776;37.496;2024-03-25T11:34:19;98881.81;;;8.24;54.71
54806;BME280;62866;55.776;37.496;2024-03-25T11:36:45;98887.19;;;8.65;53.90
54806;BME280;62866;55.776;37.496;2024-03-25T11:39:13;98880.50;;;8.89;53.11
54806;BME280;62866;55.776;37.496;2024-03-25T11:41:42;98888.22;;;8.64;53.40
54806;BME280;62866;55.776;37.496;2024-03-25T11:44:08;98888.47;;;8.35;54.29
54806;BME280;62866;55.776;37.496;2024-03-25T11:46:36;98883.88;;;8.29;54.49
54806;BME280;62866;55.776;37.496;2024-03-25T11:49:07;98893.44;;;8.45;54.61
54806;BME280;62866;55.776;37.496;2024-03-25T11:51:34;98894.88;;;8.47;54.04
54806;BME280;62866;55.776;37.496;2024-03-25T11:54:02;98888.97;;;8.24;54.84
54806;BME280;62866;55.776;37.496;2024-03-25T11:56:30;98885.28;;;8.18;54.78
54806;BME280;62866;55.776;37.496;2024-03-25T11:58:55;98897.19;;;7.94;55.00
54806;BME280;62866;55.776;37.496;2024-03-25T12:01:21;98898.03;;;7.95;55.47
54806;BME280;62866;55.776;37.496;2024-03-25T12:03:47;98900.59;;;8.16;54.85
54806;BME280;62866;55.776;37.496;2024-03-25T12:06:12;98896.78;;;8.25;54.94
54806;BME280;62866;55.776;37.496;2024-03-25T12:08:38;98871.34;;;8.23;54.59
54806;BME280;62866;55.776;37.496;2024-03-25T12:11:23;98895.00;;;8.32;54.65
54806;BME280;62866;55.776;37.496;2024-03-25T12:13:49;98885.63;;;8.09;55.20
54806;BME280;62866;55.776;37.496;2024-03-25T12:16:14;98901.59;;;8.09;55.23
54806;BME280;62866;55.776;37.496;2024-03-25T12:18:40;98902.81;;;8.13;55.37
54806;BME280;62866;55.776;37.496;2024-03-25T12:21:10;98898.78;;;8.17;54.75
54806;BME280;62866;55.776;37.496;2024-03-25T12:23:36;98901.91;;;8.27;54.80
54806;BME280;62866;55.776;37.496;2024-03-25T12:26:03;98895.88;;;8.40;54.56
54806;BME280;62866;55.776;37.496;2024-03-25T12:28:32;98902.41;;;8.37;54.09
54806;BME280;62866;55.776;37.496;2024-03-25T12:31:00;98907.34;;;8.40;54.71
54806;BME280;62866;55.776;37.496;2024-03-25T12:33:25;98903.19;;;8.31;54.33
54806;BME280;62866;55.776;37.496;2024-03-25T12:35:52;98906.84;;;8.30;54.50
54806;BME280;62866;55.776;37.496;2024-03-25T12:38:25;98911.50;;;8.21;54.60
54806;BME280;62866;55.776;37.496;2024-03-25T12:40:53;98910.47;;;8.22;53.97
54806;BME280;62866;55.776;37.496;2024-03-25T12:43:19;98910.69;;;7.93;54.81
54806;BME280;62866;55.776;37.496;2024-03-25T12:45:45;98897.75;;;7.90;54.87
54806;BME280;62866;55.776;37.496;2024-03-25T12:48:11;98902.94;;;7.98;55.45
54806;BME280;62866;55.776;37.496;2024-03-25T12:50:37;98905.72;;;8.11;55.08
54806;BME280;62866;55.776;37.496;2024-03-25T12:53:02;98892.41;;;8.11;54.84
54806;BME280;62866;55.776;37.496;2024-03-25T12:55:31;98901.59;;;8.09;54.51